Time;durP1;ratioP1;P1;durP2;ratioP2;P2;SDS_P1;SDS_P2;PMS_P1;PMS_P2;Temp;Humidity;BMP_temperature;BMP_pressure;BME280_temperature;BME280_humidity;BME280_pressure;Samples;Min_cycle;Max_cycle;Signal;HPM_P1;HPM_P2
2023/03/04 00:00:18;;;;;;;21.77;14.57;;;;;;;-3.67;100.00;96634.75;5074686;28;20468;-76
2023/03/04 00:02:45;;;;;;;19.20;14.07;;;;;;;-3.35;100.00;96655.78;5084056;28;20470;-76
2023/03/04 00:05:11;;;;;;;26.60;16.23;;;;;;;-3.78;100.00;96605.34;5071511;28;20854;-76
2023/03/04 00:07:38;;;;;;;22.90;13.30;;;;;;;-3.62;100.00;96651.16;5070234;28;20432;-75
2023/03/04 00:10:06;;;;;;;22.70;14.13;;;;;;;-3.74;100.00;96627.16;5070192;28;20519;-75
2023/03/04 00:12:32;;;;;;;16.77;12.87;;;;;;;-3.68;100.00;96635.78;5069939;28;20456;-75
2023/03/04 00:14:59;;;;;;;21.80;14.90;;;;;;;-3.78;100.00;96620.84;5070188;28;20547;-74
2023/03/04 00:17:25;;;;;;;26.53;15.40;;;;;;;-3.68;100.00;96608.16;5058178;28;20530;-75
2023/03/04 00:19:52;;;;;;;20.80;15.60;;;;;;;-3.78;100.00;96636.34;5056548;28;20983;-75
2023/03/04 00:22:19;;;;;;;18.67;12.50;;;;;;;-3.91;100.00;96590.91;5053371;28;20459;-75
2023/03/04 00:24:45;;;;;;;20.83;13.70;;;;;;;-3.40;100.00;96641.00;5069992;28;20432;-75
2023/03/04 00:27:12;;;;;;;20.00;13.10;;;;;;;-3.64;100.00;96608.47;5062882;28;20417;-75
2023/03/04 00:29:41;;;;;;;19.33;12.80;;;;;;;-3.65;100.00;96630.94;5078018;28;20463;-75
2023/03/04 00:32:08;;;;;;;18.10;12.20;;;;;;;-3.99;100.00;96617.09;5062245;28;20898;-74
2023/03/04 00:34:35;;;;;;;21.40;12.70;;;;;;;-3.92;100.00;96625.47;5064463;28;20447;-75
2023/03/04 00:37:02;;;;;;;24.70;14.93;;;;;;;-3.87;100.00;96620.44;5069952;28;20471;-75
2023/03/04 00:39:29;;;;;;;24.17;14.63;;;;;;;-3.75;100.00;96606.69;5069806;28;20511;-75
2023/03/04 00:41:56;;;;;;;23.97;14.50;;;;;;;-3.71;100.00;96621.53;5069798;28;20490;-75
2023/03/04 00:44:22;;;;;;;17.00;12.13;;;;;;;-3.99;100.00;96590.47;5056763;28;20950;-75
2023/03/04 00:46:49;;;;;;;20.83;14.57;;;;;;;-3.70;100.00;96648.16;5073344;28;20436;-75
2023/03/04 00:49:16;;;;;;;21.70;14.80;;;;;;;-4.06;100.00;96615.63;5073259;28;20452;-75
2023/03/04 00:51:43;;;;;;;16.57;13.50;;;;;;;-4.17;100.00;96584.41;5064385;28;20461;-75
2023/03/04 00:54:12;;;;;;;28.53;16.73;;;;;;;-3.90;100.00;96638.94;5085405;28;20439;-75
2023/03/04 00:56:39;;;;;;;18.93;12.07;;;;;;;-4.17;100.00;96589.59;5093349;28;20982;-76
2023/03/04 00:59:06;;;;;;;20.23;14.10;;;;;;;-4.16;100.00;96603.28;5062584;28;20908;-75
2023/03/04 01:01:32;;;;;;;19.40;12.77;;;;;;;-4.27;100.00;96604.88;5083637;28;20470;-75
2023/03/04 01:04:01;;;;;;;24.00;14.57;;;;;;;-4.42;100.00;96596.00;5073065;28;20436;-75
2023/03/04 01:06:28;;;;;;;25.87;15.10;;;;;;;-4.45;100.00;96584.31;5084494;28;20424;-75
2023/03/04 01:08:55;;;;;;;19.00;13.13;;;;;;;-4.42;100.00;96601.94;5079619;28;20435;-75
2023/03/04 01:11:22;;;;;;;20.20;14.50;;;;;;;-4.22;100.00;96619.66;5082443;28;20568;-75
2023/03/04 01:13:48;;;;;;;20.27;13.40;;;;;;;-4.30;100.00;96615.63;5069792;28;20501;-75
2023/03/04 01:16:15;;;;;;;21.67;13.43;;;;;;;-4.88;100.00;96549.31;5078845;28;20893;-75
2023/03/04 01:18:42;;;;;;;15.80;11.07;;;;;;;-4.43;100.00;96620.22;5085733;28;20439;-75
2023/03/04 01:21:08;;;;;;;23.10;13.67;;;;;;;-4.69;100.00;96569.84;5065053;28;20463;-75
2023/03/04 01:23:35;;;;;;;16.23;10.97;;;;;;;-4.80;100.00;96572.22;5069551;28;20472;-75
2023/03/04 01:26:01;;;;;;;25.30;13.60;;;;;;;-4.72;100.00;96581.41;5072958;28;20439;-74
2023/03/04 01:28:28;;;;;;;19.77;14.43;;;;;;;-4.63;100.00;96611.00;5077314;28;20434;-74
2023/03/04 01:30:55;;;;;;;22.23;14.67;;;;;;;-4.61;100.00;96611.56;5081209;28;20513;-74
2023/03/04 01:33:22;;;;;;;18.67;14.60;;;;;;;-4.84;100.00;96550.44;5069494;28;20467;-74
2023/03/04 01:35:49;;;;;;;25.97;15.70;;;;;;;-4.65;100.00;96573.56;5067301;28;20463;-74
2023/03/04 01:38:15;;;;;;;21.90;14.40;;;;;;;-4.48;100.00;96597.69;5080143;28;20932;-75
2023/03/04 01:40:42;;;;;;;22.53;14.20;;;;;;;-4.43;100.00;96574.56;5081125;28;20523;-74
2023/03/04 01:43:19;;;;;;;19.27;11.27;;;;;;;-4.04;100.00;96600.69;5086057;28;20515;-74
2023/03/04 01:45:50;;;;;;;21.20;14.80;;;;;;;-4.23;100.00;96585.34;5059397;28;20433;-74
2023/03/04 01:48:23;;;;;;;20.17;14.50;;;;;;;-4.28;100.00;96567.16;5065982;28;20427;-75
2023/03/04 01:50:50;;;;;;;19.40;14.47;;;;;;;-4.22;100.00;96581.75;5062242;28;20489;-74
2023/03/04 01:53:21;;;;;;;21.10;14.77;;;;;;;-4.00;100.00;96600.03;5084572;28;20848;-74
2023/03/04 01:55:48;;;;;;;22.50;13.57;;;;;;;-3.85;100.00;96599.56;5084968;28;20460;-75
2023/03/04 01:58:15;;;;;;;17.97;13.20;;;;;;;-3.70;100.00;96601.66;5080657;28;20466;-74
2023/03/04 02:00:41;;;;;;;22.20;15.30;;;;;;;-3.82;100.00;96567.31;5078602;28;20455;-74
2023/03/04 02:03:14;;;;;;;22.90;14.83;;;;;;;-3.77;100.00;96596.59;5083220;28;20794;-74
2023/03/04 02:05:44;;;;;;;22.70;13.60;;;;;;;-3.88;100.00;96592.22;5077711;28;20827;-74
2023/03/04 02:08:13;;;;;;;17.07;12.33;;;;;;;-3.91;100.00;96584.94;5083499;28;20855;-74
2023/03/04 02:10:42;;;;;;;23.10;13.50;;;;;;;-4.07;100.00;96562.44;5059626;28;20436;-74
2023/03/04 02:13:10;;;;;;;20.17;14.87;;;;;;;-3.89;100.00;96582.91;5066944;28;20431;-74
2023/03/04 02:15:37;;;;;;;21.20;15.13;;;;;;;-4.15;100.00;96571.28;5086215;28;20429;-74
2023/03/04 02:18:17;;;;;;;22.87;14.80;;;;;;;-3.99;100.00;96570.63;5079319;28;20482;-74
2023/03/04 02:20:53;;;;;;;22.50;13.73;;;;;;;-3.96;100.00;96577.91;5066858;28;20514;-74
2023/03/04 02:23:29;;;;;;;20.37;13.60;;;;;;;-4.35;100.00;96550.22;5089461;28;20423;-74
2023/03/04 02:26:18;;;;;;;20.10;13.37;;;;;;;-4.64;100.00;96562.25;5082291;28;20431;-74
2023/03/04 02:28:49;;;;;;;20.07;14.00;;;;;;;-4.65;100.00;96555.50;5068199;28;20421;-76
2023/03/04 02:31:28;;;;;;;22.63;14.20;;;;;;;-4.86;100.00;96560.19;5084838;28;20837;-74
2023/03/04 02:33:58;;;;;;;20.30;13.13;;;;;;;-4.90;100.00;96542.81;5078833;28;20453;-74
2023/03/04 02:36:26;;;;;;;28.30;15.33;;;;;;;-4.89;100.00;96513.44;5067753;28;20444;-74
2023/03/04 02:38:55;;;;;;;22.07;14.70;;;;;;;-4.58;100.00;96556.97;5061277;28;20515;-74
2023/03/04 02:41:25;;;;;;;19.57;13.30;;;;;;;-4.63;100.00;96549.13;5081706;28;20963;-74
2023/03/04 02:43:54;;;;;;;20.03;15.57;;;;;;;-4.58;100.00;96548.44;5054639;28;20429;-74
2023/03/04 02:46:22;;;;;;;20.97;14.03;;;;;;;-5.09;100.00;96472.53;5071276;28;20925;-74
2023/03/04 02:48:50;;;;;;;17.47;12.70;;;;;;;-4.60;100.00;96545.28;5082967;28;20948;-74
2023/03/04 02:51:16;;;;;;;20.93;13.37;;;;;;;-4.82;100.00;96532.94;5077587;28;20458;-74
2023/03/04 02:53:43;;;;;;;23.77;13.70;;;;;;;-4.87;100.00;96511.44;5079125;28;20475;-74
2023/03/04 02:56:11;;;;;;;19.97;13.57;;;;;;;-4.86;100.00;96502.69;5085949;28;20503;-74
2023/03/04 02:58:39;;;;;;;22.10;14.47;;;;;;;-4.82;100.00;96525.22;5075057;28;20465;-74
2023/03/04 03:01:08;;;;;;;21.30;14.20;;;;;;;-4.77;100.00;96498.78;5080300;28;20559;-74
2023/03/04 03:03:34;;;;;;;23.70;14.50;;;;;;;-4.84;100.00;96523.88;5051379;28;20476;-73
2023/03/04 03:06:01;;;;;;;16.17;11.80;;;;;;;-5.13;100.00;96492.03;5057430;28;20432;-74
2023/03/04 03:08:28;;;;;;;22.90;12.93;;;;;;;-5.32;100.00;96487.97;5051985;28;20836;-74
2023/03/04 03:10:55;;;;;;;21.27;13.17;;;;;;;-5.21;100.00;96502.63;5090687;28;20574;-74
2023/03/04 03:13:24;;;;;;;17.07;10.70;;;;;;;-5.35;100.00;96482.22;5090168;28;20447;-74
2023/03/04 03:15:51;;;;;;;26.27;14.27;;;;;;;-5.17;100.00;96480.59;5062937;28;20802;-74
2023/03/04 03:18:17;;;;;;;12.37;9.97;;;;;;;-5.29;100.00;96482.38;5068536;28;20452;-74
2023/03/04 03:20:44;;;;;;;16.20;11.17;;;;;;;-5.08;100.00;96520.47;5083003;28;20439;-74
2023/03/04 03:23:11;;;;;;;21.83;14.80;;;;;;;-5.06;100.00;96521.06;5085360;28;20521;-75
2023/03/04 03:25:38;;;;;;;24.10;15.40;;;;;;;-5.02;100.00;96521.41;5078687;28;20427;-75
2023/03/04 03:28:05;;;;;;;27.03;15.50;;;;;;;-5.01;100.00;96495.41;5078692;28;20459;-74
2023/03/04 03:30:31;;;;;;;24.70;14.07;;;;;;;-4.72;100.00;96505.81;5065460;28;20439;-75
2023/03/04 03:32:58;;;;;;;24.97;14.40;;;;;;;-4.62;100.00;96506.06;5075431;28;20434;-74
2023/03/04 03:35:25;;;;;;;19.27;11.63;;;;;;;-4.59;100.00;96496.06;5065097;28;20449;-74
2023/03/04 03:37:51;;;;;;;22.50;15.40;;;;;;;-4.81;100.00;96495.06;5070268;28;20461;-74
2023/03/04 03:40:18;;;;;;;22.60;14.40;;;;;;;-4.66;100.00;96533.31;5079354;28;20445;-74
2023/03/04 03:42:45;;;;;;;20.37;13.80;;;;;;;-4.44;100.00;96523.97;5076880;28;20452;-74
2023/03/04 03:45:11;;;;;;;18.13;12.83;;;;;;;-4.90;100.00;96488.69;5081908;28;20797;-74
2023/03/04 03:47:38;;;;;;;19.30;13.50;;;;;;;-4.74;100.00;96531.06;5085033;28;20425;-75
2023/03/04 03:50:06;;;;;;;24.97;15.07;;;;;;;-5.01;100.00;96500.56;5079665;28;20430;-74
2023/03/04 03:52:35;;;;;;;20.33;12.17;;;;;;;-5.04;100.00;96526.78;5076767;28;20560;-74
2023/03/04 03:55:01;;;;;;;15.30;10.73;;;;;;;-5.26;100.00;96497.38;5080828;28;20470;-73
2023/03/04 03:57:28;;;;;;;26.30;15.70;;;;;;;-5.09;100.00;96529.22;5073578;28;20836;-74
2023/03/04 03:59:55;;;;;;;17.77;11.83;;;;;;;-5.21;100.00;96511.19;5053547;28;20446;-73
2023/03/04 04:02:22;;;;;;;22.27;14.00;;;;;;;-5.13;100.00;96535.84;5083724;28;20550;-74
2023/03/04 04:04:49;;;;;;;16.70;12.90;;;;;;;-4.98;100.00;96527.66;5080348;28;20427;-74
2023/03/04 04:07:16;;;;;;;18.63;12.90;;;;;;;-5.01;100.00;96533.28;5060120;28;20552;-74
2023/03/04 04:09:43;;;;;;;24.70;12.93;;;;;;;-4.84;100.00;96531.59;5080424;28;20925;-74
2023/03/04 04:12:13;;;;;;;22.40;13.90;;;;;;;-5.27;100.00;96511.28;5073800;28;20451;-74
2023/03/04 04:14:40;;;;;;;22.73;12.97;;;;;;;-4.97;100.00;96527.44;5062476;28;20443;-74
2023/03/04 04:17:07;;;;;;;16.50;11.23;;;;;;;-5.00;100.00;96534.84;5073291;28;20519;-74
2023/03/04 04:19:34;;;;;;;17.70;13.50;;;;;;;-5.36;100.00;96508.22;5085421;28;20562;-74
2023/03/04 04:22:01;;;;;;;19.17;12.57;;;;;;;-5.36;100.00;96521.88;5063779;28;20455;-74
2023/03/04 04:24:28;;;;;;;19.10;12.77;;;;;;;-5.31;100.00;96533.34;5083772;28;20466;-74
2023/03/04 04:26:56;;;;;;;18.90;12.40;;;;;;;-5.30;100.00;96546.00;5072231;28;20436;-74
2023/03/04 04:29:23;;;;;;;19.03;11.20;;;;;;;-5.35;100.00;96522.66;5065604;28;20472;-74
2023/03/04 04:31:49;;;;;;;20.50;12.53;;;;;;;-5.16;100.00;96551.75;5080190;28;20457;-74
2023/03/04 04:34:16;;;;;;;17.77;12.07;;;;;;;-5.31;100.00;96541.06;5083133;28;20447;-74
2023/03/04 04:36:43;;;;;;;16.20;12.00;;;;;;;-5.42;100.00;96514.25;5087161;28;20458;-74
2023/03/04 04:39:10;;;;;;;13.33;11.50;;;;;;;-5.56;100.00;96505.94;5087098;28;20883;-74
2023/03/04 04:41:39;;;;;;;13.57;8.87;;;;;;;-5.22;100.00;96550.81;5063326;28;20816;-74
2023/03/04 04:44:07;;;;;;;18.50;11.87;;;;;;;-5.29;100.00;96562.22;5081556;28;20420;-74
2023/03/04 04:46:34;;;;;;;17.67;12.13;;;;;;;-5.18;100.00;96553.75;5070508;28;20470;-73
2023/03/04 04:49:01;;;;;;;20.30;12.80;;;;;;;-5.18;100.00;96559.69;5077229;28;20516;-74
2023/03/04 04:51:27;;;;;;;12.73;7.50;;;;;;;-5.14;100.00;96540.19;5078951;28;20542;-74
2023/03/04 04:53:54;;;;;;;23.57;12.83;;;;;;;-5.05;100.00;96563.88;5064010;28;20438;-74
2023/03/04 04:56:25;;;;;;;21.87;12.93;;;;;;;-5.16;100.00;96544.78;5088137;28;20451;-74
2023/03/04 04:58:53;;;;;;;22.80;13.10;;;;;;;-5.10;100.00;96559.34;5086805;28;20458;-74
2023/03/04 05:01:20;;;;;;;20.40;11.73;;;;;;;-5.13;100.00;96561.59;5080365;28;20463;-74
2023/03/04 05:03:49;;;;;;;22.40;12.63;;;;;;;-5.32;100.00;96518.88;5081126;28;20839;-74
2023/03/04 05:06:16;;;;;;;22.20;13.27;;;;;;;-5.19;100.00;96518.69;5087064;28;20590;-74
2023/03/04 05:08:42;;;;;;;17.27;9.97;;;;;;;-5.09;100.00;96542.88;5074944;28;21016;-74
2023/03/04 05:11:09;;;;;;;24.83;11.80;;;;;;;-5.00;100.00;96524.53;5084175;28;20456;-74
2023/03/04 05:13:36;;;;;;;20.23;12.50;;;;;;;-4.89;100.00;96552.91;5075119;28;20440;-74
2023/03/04 05:16:03;;;;;;;21.77;10.50;;;;;;;-5.20;100.00;96505.03;5084057;28;20478;-74
2023/03/04 05:18:30;;;;;;;20.40;10.80;;;;;;;-4.93;100.00;96528.59;5086612;28;20831;-74
2023/03/04 05:20:59;;;;;;;21.07;12.40;;;;;;;-4.88;100.00;96567.38;5063773;28;21064;-74
2023/03/04 05:23:27;;;;;;;21.03;11.57;;;;;;;-4.74;100.00;96555.06;5083838;28;20428;-74
2023/03/04 05:25:54;;;;;;;16.83;11.80;;;;;;;-4.72;100.00;96534.97;5080008;28;20960;-74
2023/03/04 05:28:21;;;;;;;15.97;11.43;;;;;;;-4.91;100.00;96529.16;5085672;28;20974;-74
2023/03/04 05:30:48;;;;;;;10.43;7.70;;;;;;;-4.50;100.00;96548.09;5082400;28;20535;-74
2023/03/04 05:33:16;;;;;;;14.53;9.90;;;;;;;-4.39;100.00;96560.22;5078942;28;20443;-75
2023/03/04 05:35:44;;;;;;;17.83;11.67;;;;;;;-4.77;100.00;96566.59;5082560;28;20467;-74
2023/03/04 05:38:13;;;;;;;20.93;12.17;;;;;;;-4.80;100.00;96551.59;5075657;28;20456;-74
2023/03/04 05:40:41;;;;;;;15.60;11.00;;;;;;;-4.88;100.00;96520.19;5083387;28;20437;-74
2023/03/04 05:43:08;;;;;;;18.60;12.13;;;;;;;-4.89;100.00;96534.06;5079056;28;20443;-74
2023/03/04 05:45:36;;;;;;;17.90;10.70;;;;;;;-4.89;100.00;96485.09;5081063;28;20427;-75
2023/03/04 05:48:04;;;;;;;19.33;10.70;;;;;;;-4.50;100.00;96542.94;5075594;28;20955;-74
2023/03/04 05:50:30;;;;;;;16.63;11.50;;;;;;;-4.84;100.00;96492.94;5084056;28;20811;-74
2023/03/04 05:52:57;;;;;;;21.30;11.63;;;;;;;-4.46;100.00;96547.41;5078803;28;20447;-74
2023/03/04 05:55:25;;;;;;;19.97;10.40;;;;;;;-4.27;100.00;96560.22;5081707;28;20430;-74
2023/03/04 05:57:52;;;;;;;19.77;11.77;;;;;;;-4.27;100.00;96571.31;5072018;28;20471;-74
2023/03/04 06:00:19;;;;;;;14.90;10.87;;;;;;;-4.30;100.00;96576.13;5084252;28;20951;-74
2023/03/04 06:02:46;;;;;;;21.47;11.57;;;;;;;-4.53;100.00;96536.44;5061993;28;20548;-74
2023/03/04 06:05:14;;;;;;;24.50;12.33;;;;;;;-4.06;100.00;96571.72;5079674;28;20945;-74
2023/03/04 06:07:44;;;;;;;29.73;12.47;;;;;;;-3.91;100.00;96587.53;5086904;28;20481;-74
2023/03/04 06:10:14;;;;;;;16.53;10.63;;;;;;;-3.88;100.00;96587.06;5084016;28;20946;-74
2023/03/04 06:12:41;;;;;;;16.83;12.00;;;;;;;-4.10;100.00;96584.31;5080619;28;20468;-74
2023/03/04 06:15:11;;;;;;;18.90;10.77;;;;;;;-4.18;100.00;96588.00;5066507;28;20436;-74
2023/03/04 06:17:40;;;;;;;22.03;13.10;;;;;;;-4.06;100.00;96593.16;5081760;28;20427;-75
2023/03/04 06:20:09;;;;;;;14.33;11.17;;;;;;;-4.02;100.00;96589.13;5079594;28;20788;-74
2023/03/04 06:22:36;;;;;;;20.90;13.63;;;;;;;-3.98;100.00;96594.63;5083324;28;20440;-74
2023/03/04 06:25:03;;;;;;;22.50;13.77;;;;;;;-4.28;100.00;96546.50;5086462;28;20957;-74
2023/03/04 06:27:30;;;;;;;19.77;12.37;;;;;;;-4.19;100.00;96558.06;5081306;28;20441;-75
2023/03/04 06:29:56;;;;;;;18.03;12.53;;;;;;;-3.95;100.00;96594.97;5077880;28;20807;-74
2023/03/04 06:32:23;;;;;;;24.17;13.60;;;;;;;-3.88;100.00;96605.94;5081761;28;20458;-74
2023/03/04 06:34:50;;;;;;;19.43;13.47;;;;;;;-3.97;100.00;96583.28;5074315;28;20939;-75
2023/03/04 06:37:17;;;;;;;24.53;12.90;;;;;;;-3.81;100.00;96605.81;5081521;28;20436;-74
2023/03/04 06:39:44;;;;;;;25.37;15.13;;;;;;;-3.82;100.00;96596.50;5086119;28;20550;-74
2023/03/04 06:42:11;;;;;;;19.10;12.53;;;;;;;-3.79;100.00;96605.59;5077261;28;20457;-74
2023/03/04 06:44:38;;;;;;;21.53;15.03;;;;;;;-4.04;100.00;96574.88;5072263;28;20863;-74
2023/03/04 06:47:04;;;;;;;21.87;12.80;;;;;;;-3.76;100.00;96613.66;5082035;28;20430;-74
2023/03/04 06:49:31;;;;;;;22.53;13.10;;;;;;;-3.93;100.00;96589.56;5074161;28;20463;-74
2023/03/04 06:51:58;;;;;;;29.00;15.00;;;;;;;-3.63;100.00;96616.00;5081782;28;20459;-75
2023/03/04 06:54:24;;;;;;;18.93;13.00;;;;;;;-3.54;100.00;96621.59;5057003;28;20536;-74
2023/03/04 06:56:51;;;;;;;29.50;19.17;;;;;;;-3.50;100.00;96609.00;5081710;28;20887;-75
2023/03/04 06:59:18;;;;;;;28.20;15.43;;;;;;;-3.67;100.00;96617.47;5077184;28;20451;-74
2023/03/04 07:01:44;;;;;;;23.20;13.87;;;;;;;-3.61;100.00;96626.88;5059797;28;20457;-74
2023/03/04 07:04:12;;;;;;;27.30;13.73;;;;;;;-3.65;100.00;96589.59;5084248;28;20483;-74
2023/03/04 07:06:39;;;;;;;21.60;13.53;;;;;;;-3.63;100.00;96610.81;5082431;28;20439;-74
2023/03/04 07:09:06;;;;;;;30.50;13.80;;;;;;;-3.44;100.00;96632.13;5077528;28;20424;-74
2023/03/04 07:11:33;;;;;;;19.30;12.57;;;;;;;-3.54;100.00;96623.41;5080077;28;20455;-75
2023/03/04 07:13:59;;;;;;;18.07;13.60;;;;;;;-3.58;100.00;96615.31;5085557;28;20424;-75
2023/03/04 07:16:26;;;;;;;19.27;13.13;;;;;;;-3.50;100.00;96614.16;5083331;28;20931;-74
2023/03/04 07:18:53;;;;;;;23.93;15.10;;;;;;;-3.44;100.00;96629.56;5078405;28;20450;-74
2023/03/04 07:21:19;;;;;;;25.07;14.80;;;;;;;-3.23;100.00;96629.91;5079574;28;20491;-74
2023/03/04 07:23:46;;;;;;;17.60;11.43;;;;;;;-3.42;100.00;96639.66;5084040;28;20438;-75
2023/03/04 07:26:13;;;;;;;22.70;13.80;;;;;;;-3.67;100.00;96608.94;5066906;28;20489;-75
2023/03/04 07:28:41;;;;;;;20.50;13.60;;;;;;;-3.46;100.00;96607.53;5077276;28;20439;-75
2023/03/04 07:31:08;;;;;;;20.03;12.93;;;;;;;-3.30;100.00;96643.78;5077351;28;21067;-75
2023/03/04 07:33:35;;;;;;;20.90;13.23;;;;;;;-3.45;100.00;96627.19;5057730;28;20855;-75
2023/03/04 07:36:01;;;;;;;24.07;14.20;;;;;;;-3.54;100.00;96624.19;5070419;28;20428;-75
2023/03/04 07:38:28;;;;;;;27.83;15.63;;;;;;;-3.52;100.00;96616.19;5083514;28;20543;-75
2023/03/04 07:40:56;;;;;;;23.80;11.87;;;;;;;-3.65;100.00;96622.41;5083869;28;20465;-75
2023/03/04 07:43:23;;;;;;;20.07;12.23;;;;;;;-3.63;100.00;96620.38;5070387;28;20436;-75
2023/03/04 07:45:49;;;;;;;17.63;11.00;;;;;;;-3.68;100.00;96617.69;5053732;28;20954;-75
2023/03/04 07:48:16;;;;;;;20.97;11.47;;;;;;;-3.76;100.00;96618.03;5071661;28;20424;-75
2023/03/04 07:50:43;;;;;;;15.07;10.50;;;;;;;-3.44;100.00;96639.09;5071382;28;20439;-75
2023/03/04 07:53:09;;;;;;;20.80;12.00;;;;;;;-3.61;100.00;96628.69;5068926;28;20432;-75
2023/03/04 07:55:36;;;;;;;18.57;11.13;;;;;;;-3.82;100.00;96593.13;5075573;28;20515;-75
2023/03/04 07:58:03;;;;;;;18.30;11.03;;;;;;;-3.15;100.00;96658.78;5083441;28;20459;-75
2023/03/04 08:00:29;;;;;;;21.43;12.33;;;;;;;-3.37;100.00;96637.16;5064377;28;20424;-75
2023/03/04 08:02:56;;;;;;;14.70;8.73;;;;;;;-3.26;100.00;96646.69;5086754;28;20554;-75
2023/03/04 08:05:22;;;;;;;16.03;10.97;;;;;;;-3.16;100.00;96656.44;5087622;28;20435;-76
2023/03/04 08:07:49;;;;;;;17.27;11.60;;;;;;;-3.06;100.00;96641.88;5083378;28;20792;-76
2023/03/04 08:10:16;;;;;;;19.20;11.43;;;;;;;-2.82;100.00;96650.31;5067509;28;20436;-76
2023/03/04 08:12:42;;;;;;;17.33;10.57;;;;;;;-3.05;100.00;96634.91;5063596;28;20955;-76
2023/03/04 08:15:09;;;;;;;17.70;10.93;;;;;;;-3.11;100.00;96639.19;5070653;28;20530;-76
2023/03/04 08:17:36;;;;;;;15.00;10.07;;;;;;;-2.80;100.00;96655.28;5084088;28;21012;-75
2023/03/04 08:20:03;;;;;;;15.70;10.50;;;;;;;-2.58;100.00;96666.50;5080383;28;20526;-75
2023/03/04 08:22:30;;;;;;;19.07;11.03;;;;;;;-2.72;100.00;96668.59;5085213;28;20975;-76
2023/03/04 08:24:57;;;;;;;16.77;9.50;;;;;;;-2.85;100.00;96653.34;5087432;28;20435;-76
2023/03/04 08:27:23;;;;;;;16.53;11.47;;;;;;;-2.80;100.00;96660.44;5083097;28;20807;-76
2023/03/04 08:29:50;;;;;;;13.37;9.70;;;;;;;-2.82;100.00;96647.72;5080309;28;20432;-76
2023/03/04 08:32:17;;;;;;;11.20;8.30;;;;;;;-2.99;100.00;96616.66;5085755;28;20529;-76
2023/03/04 08:34:44;;;;;;;20.07;13.33;;;;;;;-2.40;100.00;96655.16;5079605;28;20964;-76
2023/03/04 08:37:10;;;;;;;17.30;11.67;;;;;;;-2.81;100.00;96594.97;5067565;28;20528;-76
2023/03/04 08:39:37;;;;;;;23.53;13.43;;;;;;;-2.65;100.00;96616.72;5076279;28;20464;-76
2023/03/04 08:42:03;;;;;;;31.53;18.17;;;;;;;-2.27;100.00;96643.66;5084105;28;20456;-76
2023/03/04 08:44:30;;;;;;;25.20;14.97;;;;;;;-2.49;100.00;96633.25;5056837;28;20444;-76
2023/03/04 08:46:57;;;;;;;24.57;15.47;;;;;;;-2.52;100.00;96615.63;5080448;28;20437;-76
2023/03/04 08:49:23;;;;;;;18.80;12.20;;;;;;;-2.14;100.00;96666.66;5086668;28;20881;-76
2023/03/04 08:51:50;;;;;;;22.23;13.03;;;;;;;-1.93;100.00;96671.13;5066491;28;21009;-76
2023/03/04 08:54:17;;;;;;;21.30;13.83;;;;;;;-2.30;100.00;96605.31;5079994;28;20434;-76
2023/03/04 08:56:43;;;;;;;21.93;12.90;;;;;;;-1.68;100.00;96664.72;5066923;28;20473;-76
2023/03/04 08:59:10;;;;;;;16.50;10.87;;;;;;;-1.82;100.00;96646.13;5062634;28;20877;-76
2023/03/04 09:01:37;;;;;;;20.20;12.40;;;;;;;-1.69;100.00;96665.75;5084724;28;20456;-76
2023/03/04 09:04:04;;;;;;;22.27;12.93;;;;;;;-1.82;100.00;96653.91;5086024;28;20912;-76
2023/03/04 09:06:30;;;;;;;18.33;11.97;;;;;;;-1.61;100.00;96667.91;5083719;28;20865;-76
2023/03/04 09:08:57;;;;;;;17.90;13.30;;;;;;;-1.59;100.00;96676.25;5081319;28;20527;-76
2023/03/04 09:11:24;;;;;;;18.23;13.27;;;;;;;-1.86;100.00;96638.06;5082451;28;20813;-76
2023/03/04 09:13:50;;;;;;;18.60;13.50;;;;;;;-2.06;100.00;96583.38;5087665;28;20947;-76
2023/03/04 09:16:17;;;;;;;17.83;12.60;;;;;;;-1.70;100.00;96669.34;5074189;28;20432;-76
2023/03/04 09:18:44;;;;;;;19.70;13.30;;;;;;;-1.82;100.00;96644.31;5077654;28;20455;-76
2023/03/04 09:21:11;;;;;;;17.47;12.97;;;;;;;-1.98;100.00;96632.19;5064753;28;20838;-76
2023/03/04 09:23:38;;;;;;;20.37;14.60;;;;;;;-1.63;100.00;96670.72;5074121;28;20478;-76
2023/03/04 09:26:26;;;;;;;22.97;12.63;;;;;;;-1.79;100.00;96682.72;5068052;28;20542;-76
2023/03/04 09:28:58;;;;;;;21.20;12.97;;;;;;;-1.78;100.00;96683.50;5064457;28;20471;-76
2023/03/04 09:31:26;;;;;;;16.07;11.20;;;;;;;-1.61;100.00;96679.06;5079005;28;20855;-76
2023/03/04 09:33:53;;;;;;;23.77;16.17;;;;;;;-1.62;100.00;96676.69;5083480;28;20489;-76
2023/03/04 09:36:20;;;;;;;26.93;16.80;;;;;;;-1.48;100.00;96683.09;5075142;28;21028;-76
2023/03/04 09:38:47;;;;;;;48.80;25.67;;;;;;;-1.69;100.00;96674.28;5084326;28;20452;-76
2023/03/04 09:41:28;;;;;;;30.70;19.20;;;;;;;-1.52;100.00;96651.69;5072503;28;20451;-76
2023/03/04 09:43:55;;;;;;;19.43;13.70;;;;;;;-1.35;100.00;96680.16;5073709;28;20456;-76
2023/03/04 09:46:32;;;;;;;23.80;15.07;;;;;;;-1.56;100.00;96652.44;5084200;28;21039;-76
2023/03/04 09:48:59;;;;;;;28.40;22.73;;;;;;;-1.35;100.00;96674.97;5080700;28;20773;-76
2023/03/04 09:51:44;;;;;;;19.43;15.30;;;;;;;-1.05;100.00;96679.75;5086785;28;20551;-76
2023/03/04 09:54:24;;;;;;;18.43;12.10;;;;;;;-0.78;100.00;96676.38;5072387;28;20511;-76
2023/03/04 09:56:58;;;;;;;21.30;15.20;;;;;;;-1.26;100.00;96670.16;5089030;28;20781;-76
2023/03/04 09:59:42;;;;;;;22.73;12.30;;;;;;;-1.40;100.00;96633.44;5071828;28;20842;-76
2023/03/04 10:02:29;;;;;;;11.30;7.93;;;;;;;-1.53;100.00;96637.16;5087053;28;20456;-76
2023/03/04 10:05:01;;;;;;;16.60;12.43;;;;;;;-1.02;100.00;96662.91;5092211;28;20526;-76
2023/03/04 10:07:35;;;;;;;19.03;11.73;;;;;;;-1.01;100.00;96648.91;5073208;28;20503;-76
2023/03/04 10:10:30;;;;;;;19.87;11.20;;;;;;;-1.06;100.00;96641.06;5068865;28;20799;-76
2023/03/04 10:12:58;;;;;;;16.57;10.80;;;;;;;-0.99;100.00;96670.19;5062106;28;20506;-76
2023/03/04 10:15:36;;;;;;;13.43;11.30;;;;;;;-0.99;100.00;96667.59;5053769;28;20806;-76
2023/03/04 10:18:13;;;;;;;19.63;11.20;;;;;;;-1.18;100.00;96655.97;5066119;28;20447;-76
2023/03/04 10:20:51;;;;;;;17.37;11.57;;;;;;;-1.22;100.00;96650.47;5072782;28;20444;-76
2023/03/04 10:23:23;;;;;;;18.70;12.90;;;;;;;-1.15;100.00;96658.09;5055334;28;20440;-76
2023/03/04 10:25:53;;;;;;;21.23;10.73;;;;;;;-1.03;100.00;96656.16;5071494;28;20526;-76
2023/03/04 10:28:29;;;;;;;15.97;12.03;;;;;;;-1.10;100.00;96648.53;5072690;28;20439;-76
2023/03/04 10:31:05;;;;;;;15.70;11.23;;;;;;;-0.97;100.00;96674.09;5071214;28;20506;-76
2023/03/04 10:33:34;;;;;;;18.37;12.00;;;;;;;-0.94;100.00;96667.63;5071353;28;20540;-76
2023/03/04 10:36:26;;;;;;;12.93;11.60;;;;;;;-1.09;100.00;96678.63;5109823;27;20519;-75
2023/03/04 10:38:58;;;;;;;14.90;9.83;;;;;;;-1.33;100.00;96633.25;5080992;28;20475;-75
2023/03/04 10:41:27;;;;;;;18.30;9.53;;;;;;;-1.12;100.00;96657.59;5084596;28;21074;-75
2023/03/04 10:44:09;;;;;;;17.50;11.67;;;;;;;-0.91;100.00;96660.16;5071407;28;20438;-77
2023/03/04 10:46:44;;;;;;;12.93;10.50;;;;;;;-0.86;100.00;96617.91;5089323;28;20466;-76
2023/03/04 10:49:15;;;;;;;13.10;9.70;;;;;;;-0.43;100.00;96655.13;5072410;28;20431;-76
2023/03/04 10:51:59;;;;;;;14.67;10.50;;;;;;;-0.63;100.00;96658.34;5082568;28;20462;-75
2023/03/04 10:54:30;;;;;;;13.50;10.13;;;;;;;-0.56;100.00;96661.50;5093765;28;20533;-75
2023/03/04 10:57:03;;;;;;;15.20;9.43;;;;;;;-0.49;100.00;96648.34;5095938;28;20924;-75
2023/03/04 10:59:55;;;;;;;14.97;10.67;;;;;;;-0.64;100.00;96616.03;5102577;28;20485;-75
2023/03/04 11:02:23;;;;;;;15.67;9.70;;;;;;;-0.32;100.00;96659.38;5084161;28;20600;-75
2023/03/04 11:05:03;;;;;;;13.67;11.03;;;;;;;-0.30;100.00;96662.50;5098133;28;20465;-75
2023/03/04 11:07:31;;;;;;;11.87;10.20;;;;;;;-0.73;100.00;96607.13;5089833;28;20443;-76
2023/03/04 11:10:35;;;;;;;16.57;9.33;;;;;;;-0.38;100.00;96650.00;5074392;28;20443;-75
2023/03/04 11:13:01;;;;;;;17.63;10.10;;;;;;;-0.34;100.00;96661.44;5096529;28;20465;-75
2023/03/04 11:15:30;;;;;;;15.60;9.73;;;;;;;-0.47;100.00;96631.47;5074840;28;20534;-75